createdAt,value
2023-02-12T00:01:39.267Z,58.27637
2023-02-12T00:03:39.634Z,58.26855
2023-02-12T00:05:39.324Z,57.63379
2023-02-12T00:07:39.298Z,57.52246
2023-02-12T00:10:12.986Z,57.89648
2023-02-12T00:12:13.089Z,57.87598
2023-02-12T00:14:13.021Z,57.64941
2023-02-12T00:16:13.745Z,58.34473
2023-02-12T00:18:13.135Z,58.57715
2023-02-12T00:20:13.065Z,58.33496
2023-02-12T00:22:13.042Z,58.05371
2023-02-12T00:25:21.693Z,58.55078
2023-02-12T00:27:21.777Z,57.92383
2023-02-12T00:29:21.740Z,58.20117
2023-02-12T00:31:22.032Z,58.12891
2023-02-12T00:33:21.740Z,58.23633
2023-02-12T00:35:21.676Z,58.61914
2023-02-12T00:37:21.682Z,58.6748
2023-02-12T00:40:51.620Z,58.12109
2023-02-12T00:42:51.603Z,58.96094
2023-02-12T00:44:51.639Z,58.79688
2023-02-12T00:46:51.766Z,58.57031
2023-02-12T00:48:51.569Z,59.08789
2023-02-12T00:50:51.589Z,58.59277
2023-02-12T00:52:51.554Z,58.69531
2023-02-12T00:56:06.718Z,58.89648
2023-02-12T00:58:06.740Z,58.50195
2023-02-12T01:00:06.707Z,58.50195
2023-02-12T01:02:06.666Z,58.50879
2023-02-12T01:04:06.721Z,59.03613
2023-02-12T01:06:06.679Z,58.20313
2023-02-12T01:08:06.762Z,58.54492
2023-02-12T01:10:55.863Z,57.94629
2023-02-12T01:12:55.854Z,57.90137
2023-02-12T01:14:55.976Z,58.08691
2023-02-12T01:16:55.827Z,58.34863
2023-02-12T01:18:56.482Z,58.12109
2023-02-12T01:20:55.870Z,57.83105
2023-02-12T01:22:55.794Z,58.12988
2023-02-12T01:25:50.733Z,58.16113
2023-02-12T01:27:50.781Z,58.69727
2023-02-12T01:29:50.725Z,58.82813
2023-02-12T01:31:51.157Z,58.13086
2023-02-12T01:33:50.769Z,58.39355
2023-02-12T01:35:50.713Z,59.06445
2023-02-12T01:37:50.767Z,59.09863
2023-02-12T01:39:50.717Z,58.92285
2023-02-12T01:41:27.397Z,59.00879
2023-02-12T01:43:27.414Z,58.35059
2023-02-12T01:45:27.626Z,58.83594
2023-02-12T01:47:27.582Z,58.97852
2023-02-12T01:49:27.664Z,58.87402
2023-02-12T01:51:27.325Z,58.72852
2023-02-12T01:53:27.635Z,58.85645
2023-02-12T01:56:17.377Z,58.86719
2023-02-12T01:58:17.505Z,58.4248
2023-02-12T02:00:17.392Z,58.57422
2023-02-12T02:02:17.162Z,59.25879
2023-02-12T02:04:17.231Z,59.81738
2023-02-12T02:06:17.321Z,59.72266
2023-02-12T02:08:17.323Z,59.59375
2023-02-12T02:10:17.322Z,58.83008
2023-02-12T02:11:35.390Z,59.30469
2023-02-12T02:13:35.339Z,59.65039
2023-02-12T02:15:35.284Z,59.91113
2023-02-12T02:17:35.304Z,60.14746
2023-02-12T02:19:35.396Z,60.37305
2023-02-12T02:21:35.269Z,60.35742
2023-02-12T02:23:35.327Z,60.0918
2023-02-12T02:27:04.556Z,59.34961
2023-02-12T02:29:04.592Z,59.8916
2023-02-12T02:31:04.837Z,59.26563
2023-02-12T02:33:04.549Z,59.42969
2023-02-12T02:35:04.795Z,59.57715
2023-02-12T02:37:04.575Z,59.7998
2023-02-12T02:39:04.536Z,59.47949
2023-02-12T02:42:18.470Z,59.1748
2023-02-12T02:44:18.466Z,60.44922
2023-02-12T02:46:18.564Z,60.17188
2023-02-12T02:48:18.438Z,60.30273
2023-02-12T02:50:18.480Z,60.30371
2023-02-12T02:52:18.468Z,60.13965
2023-02-12T02:54:18.415Z,59.8252
2023-02-12T02:57:39.213Z,60.32813
2023-02-12T02:59:39.190Z,59.9502
2023-02-12T03:01:39.204Z,60.58008
2023-02-12T03:03:39.214Z,60.21289
2023-02-12T03:05:39.272Z,60.84766
2023-02-12T03:07:39.224Z,60.58105
2023-02-12T03:09:39.209Z,60.71582
2023-02-12T03:12:55.906Z,60.64844
2023-02-12T03:14:55.898Z,60.37012
2023-02-12T03:16:55.846Z,60.41113
2023-02-12T03:18:55.879Z,60.30176
2023-02-12T03:20:55.908Z,60.61426
2023-02-12T03:22:55.855Z,60.38867
2023-02-12T03:24:55.895Z,60.09863
2023-02-12T03:27:33.417Z,59.9502
2023-02-12T03:29:33.447Z,61.10254
2023-02-12T03:31:33.465Z,61.92773
2023-02-12T03:33:33.484Z,61.9502
2023-02-12T03:35:33.502Z,61.95605
2023-02-12T03:37:33.508Z,61.75586
2023-02-12T03:39:33.394Z,60.74023
2023-02-12T03:42:50.878Z,61.3584
2023-02-12T03:44:50.848Z,61.58105
2023-02-12T03:46:50.877Z,62.02246
2023-02-12T03:48:50.909Z,61.99121
2023-02-12T03:50:50.835Z,63.0166
2023-02-12T03:52:50.995Z,62.64453
2023-02-12T03:54:50.920Z,62.99902
2023-02-12T03:58:07.560Z,61.9834
2023-02-12T04:00:07.507Z,62.22266
2023-02-12T04:02:07.657Z,61.20703
2023-02-12T04:04:07.652Z,62.22363
2023-02-12T04:06:07.489Z,62.34766
2023-02-12T04:08:07.613Z,62.21973
2023-02-12T04:10:07.494Z,63.52246
2023-02-12T04:13:11.148Z,63.12012
2023-02-12T04:15:11.349Z,63.7832
2023-02-12T04:17:11.112Z,63.45996
2023-02-12T04:19:11.134Z,62.96094
2023-02-12T04:21:11.145Z,62.58398
2023-02-12T04:23:11.220Z,62.42871
2023-02-12T04:25:11.108Z,62.70996
2023-02-12T04:28:08.826Z,62.41211
2023-02-12T04:30:08.716Z,62.20215
2023-02-12T04:32:08.722Z,61.99902
2023-02-12T04:34:08.704Z,62.11523
2023-02-12T04:36:08.766Z,61.9707
2023-02-12T04:38:08.712Z,62.27832
2023-02-12T04:40:08.782Z,62.80371
2023-02-12T04:43:44.151Z,63.16895
2023-02-12T04:45:44.210Z,62.8457
2023-02-12T04:47:44.104Z,62.08203
2023-02-12T04:49:44.078Z,61.98438
2023-02-12T04:51:44.065Z,62.17285
2023-02-12T04:53:44.082Z,63.97656
2023-02-12T04:55:44.173Z,64.19727
2023-02-12T04:58:29.011Z,63.31836
2023-02-12T05:00:29.052Z,63.29102
2023-02-12T05:02:29.058Z,63.19629
2023-02-12T05:04:29.051Z,64.37598
2023-02-12T05:06:29.082Z,65.2168
2023-02-12T05:08:29.005Z,64.71582
2023-02-12T05:10:29.041Z,65.26465
2023-02-12T05:13:31.481Z,64.68164
2023-02-12T05:15:28.712Z,64.89648
2023-02-12T05:17:28.640Z,64.52246
2023-02-12T05:19:28.623Z,64.34375
2023-02-12T05:21:28.625Z,64.4541
2023-02-12T05:23:28.632Z,63.76465
2023-02-12T05:25:28.599Z,63.67285
2023-02-12T05:27:28.581Z,63.62793
2023-02-12T05:28:57.872Z,63.4873
2023-02-12T05:30:58.056Z,64.89844
2023-02-12T05:32:57.810Z,65.17188
2023-02-12T05:34:57.771Z,65.09375
2023-02-12T05:36:57.784Z,64.70801
2023-02-12T05:38:57.805Z,64.2207
2023-02-12T05:40:57.800Z,64.83301
2023-02-12T05:43:50.108Z,66.00293
2023-02-12T05:45:48.818Z,65.81641
2023-02-12T05:47:48.699Z,66.31152
2023-02-12T05:49:48.806Z,65.58691
2023-02-12T05:51:48.746Z,65.66699
2023-02-12T05:53:48.712Z,65.83203
2023-02-12T05:55:48.719Z,65.7959
2023-02-12T05:57:48.713Z,66.44922
2023-02-12T05:58:56.851Z,66.28223
2023-02-12T06:00:56.889Z,66.20801
2023-02-12T06:02:57.060Z,65.71875
2023-02-12T06:04:56.839Z,65.15332
2023-02-12T06:06:56.870Z,65.46484
2023-02-12T06:08:56.849Z,65.99609
2023-02-12T06:10:56.839Z,66.06641
2023-02-12T06:12:56.858Z,65.46973
2023-02-12T06:15:01.535Z,65.33398
2023-02-12T06:17:01.548Z,65.31152
2023-02-12T06:19:01.488Z,65.18164
2023-02-12T06:21:01.566Z,64.75
2023-02-12T06:23:01.505Z,64.15137
2023-02-12T06:25:01.484Z,64.27734
2023-02-12T06:27:01.478Z,64.57422
2023-02-12T06:30:02.022Z,64.61133
2023-02-12T06:32:02.299Z,64.50781
2023-02-12T06:34:02.011Z,64.13477
2023-02-12T06:36:02.000Z,64.20996
2023-02-12T06:38:02.035Z,64.27344
2023-02-12T06:40:01.955Z,63.85645
2023-02-12T06:42:01.964Z,64.01074
2023-02-12T06:44:25.913Z,63.78516
2023-02-12T06:46:26.113Z,64.05859
2023-02-12T06:48:25.980Z,64.80371
2023-02-12T06:50:26.019Z,65.2002
2023-02-12T06:52:25.994Z,66.29395
2023-02-12T06:54:25.912Z,66.88184
2023-02-12T06:56:25.963Z,66.65039
2023-02-12T06:58:25.994Z,65.90137
2023-02-12T07:00:29.924Z,65.52441
2023-02-12T07:02:29.888Z,64.96289
2023-02-12T07:04:29.884Z,64.56543
2023-02-12T07:06:29.906Z,64.64648
2023-02-12T07:08:29.825Z,64.56543
2023-02-12T07:10:29.920Z,64.87988
2023-02-12T07:12:29.862Z,64.6582
2023-02-12T07:14:54.773Z,65.27051
2023-02-12T07:16:57.558Z,65.36621
2023-02-12T07:18:54.879Z,65.20801
2023-02-12T07:20:54.823Z,64.77539
2023-02-12T07:22:54.879Z,65.30664
2023-02-12T07:24:54.885Z,65.20117
2023-02-12T07:26:54.784Z,64.8916
2023-02-12T07:30:42.959Z,65.47656
2023-02-12T07:32:41.140Z,67.25293
2023-02-12T07:34:41.369Z,66.07031
2023-02-12T07:36:41.214Z,65.18066
2023-02-12T07:38:41.225Z,65.2959
2023-02-12T07:40:41.165Z,65.70898
2023-02-12T07:42:41.187Z,65.30469
2023-02-12T07:45:58.904Z,66.1416
2023-02-12T07:47:58.036Z,67.18945
2023-02-12T07:49:58.079Z,67.56348
2023-02-12T07:51:58.119Z,66.45996
2023-02-12T07:53:58.104Z,66.30078
2023-02-12T07:55:58.540Z,65.61035
2023-02-12T07:57:58.432Z,65.08301
2023-02-12T08:00:45.339Z,64.80176
2023-02-12T08:02:45.367Z,64.52148
2023-02-12T08:04:45.301Z,64.31543
2023-02-12T08:06:45.252Z,64.6582
2023-02-12T08:08:45.169Z,64.49023
2023-02-12T08:10:45.091Z,64.58691
2023-02-12T08:12:45.142Z,69.23145
2023-02-12T08:15:25.933Z,69.52344
2023-02-12T08:17:25.855Z,68.4043
2023-02-12T08:19:27.118Z,67.48145
2023-02-12T08:21:25.902Z,67.18066
2023-02-12T08:23:25.847Z,66.61621
2023-02-12T08:25:25.868Z,65.61133
2023-02-12T08:27:25.889Z,65.81445
2023-02-12T08:29:25.823Z,66.48047
2023-02-12T08:31:14.786Z,66.8125
2023-02-12T08:33:14.647Z,66.74609
2023-02-12T08:35:14.747Z,66.75879
2023-02-12T08:37:14.657Z,66.9248
2023-02-12T08:39:14.654Z,66.67578
2023-02-12T08:41:14.670Z,65.95801
2023-02-12T08:43:14.709Z,66.13672
2023-02-12T08:45:47.854Z,65.74316
2023-02-12T08:47:47.766Z,66.2998
2023-02-12T08:49:47.786Z,66.14648
2023-02-12T08:51:47.738Z,66.57129
2023-02-12T08:53:47.893Z,66.07129
2023-02-12T08:55:47.778Z,65.9834
2023-02-12T08:57:47.726Z,65.86914
2023-02-12T08:59:47.841Z,65.81738
2023-02-12T09:01:06.264Z,65.80566
2023-02-12T09:03:06.145Z,65.75098
2023-02-12T09:05:06.121Z,66.60938
2023-02-12T09:07:09.563Z,65.95215
2023-02-12T09:09:06.134Z,65.67578
2023-02-12T09:11:06.096Z,65.84961
2023-02-12T09:13:06.100Z,66.00879
2023-02-12T09:16:31.611Z,66.11523
2023-02-12T09:18:25.531Z,65.65039
2023-02-12T09:20:25.511Z,65.95215
2023-02-12T09:22:25.453Z,65.9082
2023-02-12T09:24:25.491Z,66.05957
2023-02-12T09:26:25.454Z,66.01465
2023-02-12T09:28:25.555Z,65.17383
2023-02-12T09:31:58.674Z,64.3916
2023-02-12T09:33:58.506Z,64.4707
2023-02-12T09:36:00.506Z,63.50684
2023-02-12T09:37:58.508Z,63.18848
2023-02-12T09:39:58.443Z,63.98145
2023-02-12T09:41:58.438Z,64.29395
2023-02-12T09:43:58.537Z,64.42773
2023-02-12T09:47:02.242Z,65.03027
2023-02-12T09:49:02.277Z,65.0791
2023-02-12T09:51:02.239Z,65.0498
2023-02-12T09:53:02.225Z,64.94141
2023-02-12T09:55:02.236Z,64.52539
2023-02-12T09:57:02.231Z,64.6543
2023-02-12T09:59:02.276Z,64.17383
2023-02-12T10:02:13.355Z,64.29492
2023-02-12T10:04:13.428Z,63.61523
2023-02-12T10:06:13.341Z,63.4375
2023-02-12T10:08:13.310Z,63.76855
2023-02-12T10:10:13.347Z,63.625
2023-02-12T10:12:13.313Z,63.20117
2023-02-12T10:14:13.397Z,63.08203
2023-02-12T10:16:59.524Z,62.81934
2023-02-12T10:18:59.581Z,62.62793
2023-02-12T10:21:00.019Z,62.73535
2023-02-12T10:22:59.493Z,62.33594
2023-02-12T10:24:59.541Z,62.52344
2023-02-12T10:26:59.552Z,62.04785
2023-02-12T10:28:59.472Z,61.8457
2023-02-12T10:31:54.598Z,61.85449
2023-02-12T10:33:54.375Z,61.8252
2023-02-12T10:35:55.119Z,61.20703
2023-02-12T10:37:54.219Z,61.19141
2023-02-12T10:39:54.188Z,61.12109
2023-02-12T10:41:54.450Z,61.74707
2023-02-12T10:43:54.258Z,61.51758
2023-02-12T10:45:55.107Z,61.60938
2023-02-12T10:47:57.366Z,61.01367
2023-02-12T10:49:57.354Z,61.51367
2023-02-12T10:51:57.437Z,61.34961
2023-02-12T10:53:57.350Z,60.51563
2023-02-12T10:55:58.173Z,60.45898
2023-02-12T10:57:57.357Z,60.63281
2023-02-12T10:59:57.412Z,61.15625
2023-02-12T11:02:15.090Z,61.55371
2023-02-12T11:04:15.320Z,61.02051
2023-02-12T11:06:15.073Z,61.14648
2023-02-12T11:08:15.119Z,60.96875
2023-02-12T11:10:15.136Z,60.15137
2023-02-12T11:12:15.093Z,60.36719
2023-02-12T11:14:15.070Z,59.67871
2023-02-12T11:16:15.166Z,59.0752
2023-02-12T11:17:34.326Z,58.83105
2023-02-12T11:19:34.395Z,58.61719
2023-02-12T11:21:34.302Z,58.49023
2023-02-12T11:23:34.402Z,58.18066
2023-02-12T11:25:34.427Z,59.02539
2023-02-12T11:27:34.332Z,59.86035
2023-02-12T11:29:34.409Z,58.95898
2023-02-12T11:32:54.990Z,59.14355
2023-02-12T11:34:55.167Z,58.7373
2023-02-12T11:36:55.363Z,58.08301
2023-02-12T11:38:55.003Z,58.60254
2023-02-12T11:40:55.287Z,58.96191
2023-02-12T11:42:55.011Z,58.86133
2023-02-12T11:44:54.947Z,58.54492
2023-02-12T11:47:55.030Z,59.28223
2023-02-12T11:49:54.987Z,59.63672
2023-02-12T11:51:55.031Z,60.26563
2023-02-12T11:53:54.995Z,60.49707
2023-02-12T11:55:55.155Z,59.83008
2023-02-12T11:57:55.103Z,58.91504
2023-02-12T11:59:55.151Z,58.9248
2023-02-12T12:02:52.935Z,57.93164
2023-02-12T12:04:52.801Z,58.47363
2023-02-12T12:06:52.824Z,58.38574
2023-02-12T12:08:52.804Z,58.75684
2023-02-12T12:10:52.776Z,58.45996
2023-02-12T12:12:52.773Z,58.1709
2023-02-12T12:14:52.813Z,57.41895
2023-02-12T12:16:52.796Z,58.25781
2023-02-12T12:18:28.268Z,57.59277
2023-02-12T12:20:28.481Z,57.03223
2023-02-12T12:22:28.274Z,58.13281
2023-02-12T12:24:28.261Z,58.12012
2023-02-12T12:26:28.322Z,58.375
2023-02-12T12:28:28.343Z,58.4707
2023-02-12T12:30:28.290Z,58.29492
2023-02-12T12:34:11.002Z,57.9209
2023-02-12T12:36:10.866Z,58.90137
2023-02-12T12:38:10.846Z,59.43848
2023-02-12T12:40:10.903Z,58.67188
2023-02-12T12:42:10.843Z,59.38379
2023-02-12T12:44:10.916Z,59.67871
2023-02-12T12:46:10.970Z,60.24805
2023-02-12T12:49:09.297Z,59.4541
2023-02-12T12:51:09.353Z,59.92676
2023-02-12T12:53:09.989Z,59.62695
2023-02-12T12:55:09.325Z,59.14648
2023-02-12T12:57:09.333Z,59.83301
2023-02-12T12:59:09.461Z,60.02734
2023-02-12T13:01:09.384Z,60.29688
2023-02-12T13:04:25.704Z,60.39453
2023-02-12T13:06:25.560Z,59.81055
2023-02-12T13:08:25.595Z,60.01465
2023-02-12T13:10:25.636Z,60.18457
2023-02-12T13:12:25.575Z,60.92676
2023-02-12T13:14:25.642Z,60.71484
2023-02-12T13:16:26.069Z,60.04297
2023-02-12T13:19:21.902Z,61.76953
2023-02-12T13:21:21.960Z,61.87305
2023-02-12T13:23:21.884Z,61.4502
2023-02-12T13:25:21.823Z,61.12891
2023-02-12T13:27:21.853Z,60.56836
2023-02-12T13:29:21.837Z,60.70996
2023-02-12T13:31:33.618Z,60.63574
2023-02-12T13:34:24.755Z,61.40723
2023-02-12T13:36:24.916Z,61.27051
2023-02-12T13:38:24.751Z,61.08301
2023-02-12T13:40:24.893Z,61.11914
2023-02-12T13:42:24.740Z,61.33301
2023-02-12T13:44:24.742Z,60.47949
2023-02-12T13:46:24.897Z,59.61426
2023-02-12T13:49:05.635Z,60.19336
2023-02-12T13:51:05.568Z,60.19434
2023-02-12T13:53:05.783Z,60.36035
2023-02-12T13:55:05.628Z,59.83789
2023-02-12T13:57:05.516Z,59.95508
2023-02-12T13:59:05.650Z,59.85254
2023-02-12T14:01:05.603Z,60.11523
2023-02-12T14:03:05.532Z,59.93066
2023-02-12T14:04:42.425Z,60.7041
2023-02-12T14:06:42.453Z,60.66699
2023-02-12T14:08:42.467Z,60.20605
2023-02-12T14:10:42.411Z,59.65332
2023-02-12T14:12:43.209Z,59.8457
2023-02-12T14:14:42.369Z,60.07129
2023-02-12T14:16:42.387Z,59.42676
2023-02-12T14:20:11.913Z,59.33984
2023-02-12T14:22:12.017Z,59.65625
2023-02-12T14:24:11.848Z,59.42383
2023-02-12T14:26:12.575Z,60.62012
2023-02-12T14:28:11.935Z,61.58496
2023-02-12T14:30:11.932Z,61.61719
2023-02-12T14:32:11.840Z,61.27539
2023-02-12T14:35:11.867Z,61.92578
2023-02-12T14:37:11.803Z,61.44336
2023-02-12T14:39:11.943Z,61.59277
2023-02-12T14:41:11.766Z,61.18457
2023-02-12T14:43:11.763Z,61.49805
2023-02-12T14:45:11.972Z,61.71387
2023-02-12T14:47:11.745Z,61.49902
2023-02-12T14:50:01.354Z,61.8125
2023-02-12T14:52:00.818Z,61.9873
2023-02-12T14:54:00.379Z,62.83301
2023-02-12T14:56:00.421Z,62.54102
2023-02-12T14:58:02.955Z,62.4873
2023-02-12T15:00:00.426Z,62.6543
2023-02-12T15:02:00.604Z,62.17188
2023-02-12T15:05:09.537Z,62.16113
2023-02-12T15:07:09.140Z,61.62109
2023-02-12T15:09:09.281Z,62.20996
2023-02-12T15:11:10.285Z,62.38867
2023-02-12T15:13:09.183Z,62.12598
2023-02-12T15:15:09.168Z,62.25488
2023-02-12T15:17:09.213Z,62.5791
2023-02-12T15:20:25.425Z,62.50879
2023-02-12T15:22:25.475Z,62.39063
2023-02-12T15:24:25.599Z,63.09473
2023-02-12T15:26:25.443Z,63.25586
2023-02-12T15:28:25.660Z,63.98242
2023-02-12T15:30:27.054Z,63.55469
2023-02-12T15:32:25.423Z,63.9209
2023-02-12T15:35:40.246Z,63.49414
2023-02-12T15:37:40.231Z,63.66211
2023-02-12T15:39:40.318Z,64.01172
2023-02-12T15:41:40.386Z,63.58398
2023-02-12T15:43:40.302Z,63.31543
2023-02-12T15:45:40.307Z,63.85449
2023-02-12T15:47:40.325Z,63.72363
2023-02-12T15:50:38.868Z,63.71484
2023-02-12T15:52:38.790Z,63.55664
2023-02-12T15:54:38.801Z,63.3877
2023-02-12T15:56:38.942Z,63.75195
2023-02-12T15:58:39.050Z,63.77441
2023-02-12T16:00:38.839Z,63.49023
2023-02-12T16:02:38.792Z,63.34766
2023-02-12T16:06:06.331Z,63.72461
2023-02-12T16:08:06.312Z,63.66797
2023-02-12T16:10:06.394Z,63.13281
2023-02-12T16:12:06.347Z,62.97852
2023-02-12T16:14:06.301Z,63.32227
2023-02-12T16:16:06.456Z,63.57813
2023-02-12T16:18:06.368Z,63.44336
2023-02-12T16:21:26.691Z,63.83984
2023-02-12T16:23:23.949Z,64.19043
2023-02-12T16:25:24.003Z,64.44434
2023-02-12T16:27:23.825Z,64.67285
2023-02-12T16:29:23.764Z,64.61133
2023-02-12T16:31:24.027Z,64.56738
2023-02-12T16:33:23.766Z,64.33301
2023-02-12T16:36:32.096Z,63.95508
2023-02-12T16:38:31.968Z,64.21191
2023-02-12T16:40:32.016Z,64.05371
2023-02-12T16:42:31.975Z,64.25684
2023-02-12T16:44:31.941Z,64.0918
2023-02-12T16:46:32.037Z,64.16602
2023-02-12T16:48:31.945Z,64.34082
2023-02-12T16:51:33.176Z,64.22363
2023-02-12T16:53:33.127Z,63.72559
2023-02-12T16:55:33.290Z,64.23633
2023-02-12T16:57:33.114Z,63.88184
2023-02-12T16:59:33.186Z,63.89258
2023-02-12T17:01:33.123Z,64.11133
2023-02-12T17:03:33.363Z,64.83691
2023-02-12T17:06:20.288Z,65.53125
2023-02-12T17:08:20.273Z,65.08301
2023-02-12T17:10:20.596Z,65.5293
2023-02-12T17:12:20.384Z,65.50293
2023-02-12T17:14:20.564Z,65.36133
2023-02-12T17:16:31.697Z,65.55859
2023-02-12T17:18:20.327Z,65.68262
2023-02-12T17:20:20.277Z,65.88965
2023-02-12T17:21:51.441Z,65.94727
2023-02-12T17:23:51.403Z,66.19824
2023-02-12T17:25:51.355Z,65.82422
2023-02-12T17:27:51.359Z,65.79297
2023-02-12T17:29:51.348Z,65.74707
2023-02-12T17:31:51.661Z,65.40137
2023-02-12T17:33:51.348Z,65.15625
2023-02-12T17:36:47.109Z,65.52734
2023-02-12T17:38:47.057Z,65.44531
2023-02-12T17:40:47.046Z,66.14941
2023-02-12T17:42:47.051Z,66.58984
2023-02-12T17:44:47.136Z,66.6543
2023-02-12T17:46:47.041Z,66.70801
2023-02-12T17:48:47.272Z,66.70801
2023-02-12T17:52:13.028Z,67.43652
2023-02-12T17:54:12.912Z,67.27734
2023-02-12T17:56:13.135Z,67.68945
2023-02-12T17:58:13.032Z,67.49805
2023-02-12T18:00:13.194Z,67.67285
2023-02-12T18:02:13.099Z,68.11621
2023-02-12T18:04:13.239Z,67.85645
2023-02-12T18:07:27.828Z,67.82227
2023-02-12T18:09:27.829Z,68.11816
2023-02-12T18:11:27.829Z,68.37305
2023-02-12T18:13:27.698Z,68.83691
2023-02-12T18:15:27.616Z,68.17773
2023-02-12T18:17:27.633Z,68.69727
2023-02-12T18:19:27.613Z,68.83887
2023-02-12T18:22:05.418Z,68.5625
2023-02-12T18:24:05.305Z,68.86914
2023-02-12T18:26:05.246Z,68.66699
2023-02-12T18:28:05.487Z,69.22461
2023-02-12T18:30:05.303Z,69.00293
2023-02-12T18:32:05.316Z,69.32227
2023-02-12T18:34:05.285Z,69.42188
2023-02-12T18:36:05.378Z,69.37012
2023-02-12T18:37:28.532Z,68.9375
2023-02-12T18:39:28.286Z,69.53809
2023-02-12T18:41:28.387Z,69.86133
2023-02-12T18:43:28.475Z,69.56543
2023-02-12T18:45:28.316Z,69.42969
2023-02-12T18:47:28.339Z,69.29785
2023-02-12T18:49:28.245Z,69.70313
2023-02-12T18:52:38.658Z,69.49512
2023-02-12T18:54:38.679Z,69.36621
2023-02-12T18:56:38.659Z,69.22754
2023-02-12T18:58:38.654Z,69.29004
2023-02-12T19:00:38.652Z,69.1123
2023-02-12T19:02:38.567Z,69.14355
2023-02-12T19:04:38.675Z,69.34961
2023-02-12T19:08:16.479Z,70.2666
2023-02-12T19:10:16.441Z,69.97266
2023-02-12T19:12:16.376Z,69.64648
2023-02-12T19:14:16.507Z,69.2373
2023-02-12T19:16:16.433Z,70.05078
2023-02-12T19:18:16.400Z,69.9834
2023-02-12T19:20:16.465Z,70.11035
2023-02-12T19:23:31.119Z,69.98438
2023-02-12T19:25:31.123Z,69.86621
2023-02-12T19:27:31.055Z,69.93457
2023-02-12T19:29:31.102Z,69.97656
2023-02-12T19:31:31.320Z,70.33398
2023-02-12T19:33:31.069Z,70.10059
2023-02-12T19:35:31.053Z,69.67578
2023-02-12T19:38:45.980Z,69.08496
2023-02-12T19:40:45.927Z,69.41309
2023-02-12T19:42:46.004Z,69.08105
2023-02-12T19:44:45.878Z,69.26758
2023-02-12T19:46:45.923Z,69.1748
2023-02-12T19:48:46.047Z,69.20117
2023-02-12T19:50:45.921Z,68.71582
2023-02-12T19:53:07.004Z,69.0127
2023-02-12T19:55:07.368Z,69.47168
2023-02-12T19:57:06.944Z,69.7002
2023-02-12T19:59:06.986Z,69.38574
2023-02-12T20:01:07.167Z,69.61816
2023-02-12T20:03:07.066Z,69.80176
2023-02-12T20:05:07.023Z,69.96973
2023-02-12T20:07:06.988Z,70.5
2023-02-12T20:08:27.418Z,70.25098
2023-02-12T20:10:27.519Z,70.76953
2023-02-12T20:12:27.285Z,70.32129
2023-02-12T20:14:27.305Z,70.31641
2023-02-12T20:16:27.386Z,70.69629
2023-02-12T20:18:27.342Z,70.79395
2023-02-12T20:20:27.241Z,70.98047
2023-02-12T20:24:15.836Z,71.2627
2023-02-12T20:26:15.792Z,70.94043
2023-02-12T20:28:15.877Z,71.02539
2023-02-12T20:30:15.740Z,71.14941
2023-02-12T20:32:15.875Z,71.46973
2023-02-12T20:34:15.783Z,71.08984
2023-02-12T20:36:15.759Z,71.38379
2023-02-12T20:39:24.254Z,71.42773
2023-02-12T20:41:24.295Z,71.48047
2023-02-12T20:43:24.238Z,71.61914
2023-02-12T20:45:24.296Z,71.2168
2023-02-12T20:47:24.184Z,71.50684
2023-02-12T20:49:24.241Z,71.00098
2023-02-12T20:51:24.213Z,71.12891
2023-02-12T20:54:07.201Z,70.97754
2023-02-12T20:56:07.206Z,71.09863
2023-02-12T20:58:07.358Z,71.66406
2023-02-12T21:00:07.256Z,71.84961
2023-02-12T21:02:07.222Z,71.47949
2023-02-12T21:04:07.205Z,71.07031
2023-02-12T21:06:07.223Z,71.29883
2023-02-12T21:08:57.803Z,70.92285
2023-02-12T21:10:57.831Z,71.53711
2023-02-12T21:12:57.755Z,70.98438
2023-02-12T21:14:57.783Z,70.97949
2023-02-12T21:16:58.110Z,70.93945
2023-02-12T21:18:57.729Z,71.0625
2023-02-12T21:20:57.730Z,71.30078
2023-02-12T21:22:57.763Z,70.92773
2023-02-12T21:24:42.896Z,71.36523
2023-02-12T21:26:42.956Z,71.07617
2023-02-12T21:28:43.035Z,71.48535
2023-02-12T21:30:42.952Z,71.3584
2023-02-12T21:32:43.550Z,71.05078
2023-02-12T21:34:42.952Z,71.35449
2023-02-12T21:36:42.965Z,71.43848
2023-02-12T21:39:30.389Z,72.11328
2023-02-12T21:41:30.359Z,71.77344
2023-02-12T21:43:30.354Z,71.15527
2023-02-12T21:45:30.456Z,71.1709
2023-02-12T21:47:30.380Z,71.0127
2023-02-12T21:49:30.476Z,70.57617
2023-02-12T21:51:30.333Z,71.05469
2023-02-12T21:54:43.228Z,70.83105
2023-02-12T21:56:43.176Z,71.08789
2023-02-12T21:58:43.243Z,71.81543
2023-02-12T22:00:43.194Z,71.54395
2023-02-12T22:02:43.304Z,71.44336
2023-02-12T22:04:43.316Z,71.45996
2023-02-12T22:06:43.139Z,71.10938
2023-02-12T22:09:36.436Z,71.77832
2023-02-12T22:11:36.370Z,72.00879
2023-02-12T22:13:36.393Z,71.6543
2023-02-12T22:15:36.435Z,72.18555
2023-02-12T22:17:36.392Z,72.2998
2023-02-12T22:19:36.432Z,72.32813
2023-02-12T22:21:36.414Z,72.875
2023-02-12T22:23:36.369Z,72.83398
2023-02-12T22:25:02.217Z,72.8291
2023-02-12T22:27:02.223Z,72.13184
2023-02-12T22:29:02.173Z,72.36035
2023-02-12T22:31:02.188Z,72.54883
2023-02-12T22:33:02.185Z,72.27441
2023-02-12T22:35:02.534Z,72.12891
2023-02-12T22:37:02.231Z,72.48047
2023-02-12T22:40:39.950Z,72.90332
2023-02-12T22:42:39.942Z,72.98242
2023-02-12T22:44:39.848Z,72.71289
2023-02-12T22:46:39.934Z,72.85352
2023-02-12T22:48:39.831Z,72.54395
2023-02-12T22:50:39.914Z,72.2832
2023-02-12T22:52:39.852Z,72.46777
2023-02-12T22:55:15.225Z,73.3457
2023-02-12T22:57:15.179Z,73.32422
2023-02-12T22:59:15.207Z,73.03809
2023-02-12T23:01:15.281Z,72.93359
2023-02-12T23:03:15.184Z,73.18555
2023-02-12T23:05:15.193Z,72.56836
2023-02-12T23:07:15.186Z,72.50684
2023-02-12T23:10:26.063Z,72.4873
2023-02-12T23:12:25.793Z,72.56641
2023-02-12T23:14:25.840Z,72.63574
2023-02-12T23:16:26.025Z,72.89844
2023-02-12T23:18:25.789Z,73.16699
2023-02-12T23:20:25.863Z,72.99121
2023-02-12T23:22:25.853Z,73.01855
2023-02-12T23:25:27.691Z,73.56055
2023-02-12T23:27:27.776Z,73.75195
2023-02-12T23:29:27.700Z,74.21777
2023-02-12T23:31:28.018Z,74.20313
2023-02-12T23:33:27.772Z,74.47852
2023-02-12T23:35:27.724Z,74.80371
2023-02-12T23:37:27.786Z,74.46777
2023-02-12T23:41:26.708Z,74.92383
2023-02-12T23:43:26.728Z,74.99805
2023-02-12T23:45:26.611Z,75.07715
2023-02-12T23:47:26.672Z,75.0332
2023-02-12T23:49:26.628Z,75.57813
2023-02-12T23:51:26.632Z,75.54688
2023-02-12T23:53:26.717Z,75.33887
2023-02-12T23:55:59.202Z,75.99902
2023-02-12T23:57:59.165Z,75.73047
2023-02-12T23:59:59.152Z,75.9707
